Time;durP1;ratioP1;P1;durP2;ratioP2;P2;SDS_P1;SDS_P2;PMS_P1;PMS_P2;Temp;Humidity;BMP_temperature;BMP_pressure;BME280_temperature;BME280_humidity;BME280_pressure;Samples;Min_cycle;Max_cycle;Signal;HPM_P1;HPM_P2
2023/12/03 00:00:20;;;;;;;1.58;1.20;;;0.90;99.90;;;;;;5114151;28;20032;-70
2023/12/03 00:02:46;;;;;;;1.55;1.20;;;0.90;99.90;;;;;;5113984;28;20047;-70
2023/12/03 00:05:12;;;;;;;1.30;1.20;;;0.90;99.90;;;;;;5114009;28;20080;-70
2023/12/03 00:07:38;;;;;;;2.13;2.03;;;0.90;99.90;;;;;;5114344;28;20160;-70
2023/12/03 00:10:05;;;;;;;1.30;1.20;;;0.90;99.90;;;;;;5113983;28;20114;-70
2023/12/03 00:12:30;;;;;;;4.22;3.38;;;0.90;99.90;;;;;;5113985;28;20116;-70
2023/12/03 00:14:56;;;;;;;1.30;1.20;;;0.80;99.90;;;;;;5112535;28;20057;-70
2023/12/03 00:17:22;;;;;;;1.17;1.08;;;0.80;99.90;;;;;;5113921;28;20032;-71
2023/12/03 00:19:47;;;;;;;2.28;2.17;;;0.80;99.90;;;;;;5114113;28;20040;-70
2023/12/03 00:22:14;;;;;;;1.38;1.27;;;0.80;99.90;;;;;;5113888;28;20368;-69
2023/12/03 00:24:39;;;;;;;1.40;1.30;;;0.90;99.90;;;;;;5113806;28;20036;-70
2023/12/03 00:27:05;;;;;;;12.75;4.85;;;0.80;99.90;;;;;;5114050;28;20036;-70
2023/12/03 00:29:31;;;;;;;1.40;1.30;;;0.80;99.90;;;;;;5113769;28;20071;-70
2023/12/03 00:31:56;;;;;;;1.40;1.30;;;0.80;99.90;;;;;;5113758;28;20464;-70
2023/12/03 00:34:22;;;;;;;1.20;1.10;;;0.90;99.90;;;;;;5113885;28;20047;-70
2023/12/03 00:36:47;;;;;;;1.20;1.10;;;0.90;99.90;;;;;;5113637;28;20080;-70
2023/12/03 00:39:13;;;;;;;2.47;2.28;;;0.80;99.90;;;;;;5113625;28;20044;-70
2023/12/03 00:41:39;;;;;;;1.50;1.40;;;0.80;99.90;;;;;;5113834;28;20079;-70
2023/12/03 00:44:05;;;;;;;1.23;1.13;;;0.80;99.90;;;;;;5113775;28;20039;-70
2023/12/03 00:46:30;;;;;;;1.30;1.20;;;0.80;99.90;;;;;;5113334;28;20036;-70
2023/12/03 00:48:56;;;;;;;1.20;1.10;;;0.70;99.90;;;;;;5113657;28;20084;-70
2023/12/03 00:51:21;;;;;;;1.45;1.35;;;0.80;99.90;;;;;;5113615;28;20039;-70
2023/12/03 00:53:47;;;;;;;1.77;1.67;;;0.80;99.90;;;;;;5113598;28;20474;-70
2023/12/03 00:56:12;;;;;;;1.40;1.30;;;0.80;99.90;;;;;;5113349;28;20040;-69
2023/12/03 00:58:38;;;;;;;1.27;1.17;;;0.70;99.90;;;;;;5113592;28;20032;-70
2023/12/03 01:01:04;;;;;;;1.50;1.40;;;0.80;99.90;;;;;;5115934;28;20371;-70
2023/12/03 01:03:30;;;;;;;1.20;1.10;;;0.80;99.90;;;;;;5117250;28;20383;-70
2023/12/03 01:05:56;;;;;;;1.20;1.10;;;0.70;99.90;;;;;;5116853;28;20035;-70
2023/12/03 01:08:22;;;;;;;1.27;1.17;;;0.70;99.90;;;;;;5117100;28;20040;-70
2023/12/03 01:10:48;;;;;;;1.20;1.10;;;0.70;99.90;;;;;;5116912;28;20118;-70
2023/12/03 01:13:13;;;;;;;1.30;1.20;;;0.70;99.90;;;;;;5116461;28;20036;-70
2023/12/03 01:15:39;;;;;;;1.20;1.10;;;0.70;99.90;;;;;;5116621;28;20077;-70
2023/12/03 01:18:04;;;;;;;1.50;1.40;;;0.60;99.90;;;;;;5116868;28;20044;-70
2023/12/03 01:20:30;;;;;;;1.58;1.48;;;0.60;99.90;;;;;;5117149;28;20130;-70
2023/12/03 01:22:56;;;;;;;1.42;1.10;;;0.60;99.90;;;;;;5116901;28;20090;-70
2023/12/03 01:25:22;;;;;;;1.20;1.10;;;0.70;99.90;;;;;;5116947;28;20074;-70
2023/12/03 01:27:47;;;;;;;1.30;1.20;;;1.70;99.90;;;;;;5116835;28;20055;-70
2023/12/03 01:30:14;;;;;;;1.20;1.10;;;0.60;99.90;;;;;;5116379;28;20035;-70
2023/12/03 01:32:40;;;;;;;1.17;1.07;;;0.70;99.90;;;;;;5116702;28;20375;-70
2023/12/03 01:35:06;;;;;;;1.30;1.10;;;0.70;99.90;;;;;;5116827;28;20061;-70
2023/12/03 01:37:32;;;;;;;4.03;3.72;;;0.70;99.90;;;;;;5116556;28;20463;-70
2023/12/03 01:39:57;;;;;;;1.50;1.40;;;0.70;99.90;;;;;;5116315;28;20071;-70
2023/12/03 01:42:24;;;;;;;1.50;1.40;;;0.70;99.90;;;;;;5116263;28;20464;-70
2023/12/03 01:44:50;;;;;;;;;;;0.70;99.90;;;;;;5116714;28;20085;-70
2023/12/03 01:47:16;;;;;;;1.25;1.15;;;0.70;99.90;;;;;;5116695;28;19920;-70
2023/12/03 01:49:42;;;;;;;2.00;1.48;;;0.70;99.90;;;;;;5116283;28;20054;-70
2023/12/03 01:52:07;;;;;;;7.43;3.22;;;0.70;99.90;;;;;;5116300;28;20126;-70
2023/12/03 01:54:35;;;;;;;1.40;1.30;;;0.80;99.90;;;;;;5116675;28;20121;-70
2023/12/03 01:57:01;;;;;;;1.20;1.10;;;0.70;99.90;;;;;;5116018;27;20043;-70
2023/12/03 01:59:27;;;;;;;1.35;1.25;;;0.80;99.90;;;;;;5116284;28;20040;-70
2023/12/03 02:01:53;;;;;;;1.48;1.38;;;0.80;99.90;;;;;;5116224;28;20032;-70
2023/12/03 02:04:18;;;;;;;1.20;1.10;;;0.80;99.90;;;;;;5116453;28;20036;-70
2023/12/03 02:06:44;;;;;;;1.20;1.10;;;0.80;99.90;;;;;;5115966;28;20093;-70
2023/12/03 02:09:10;;;;;;;1.30;1.20;;;0.80;99.90;;;;;;5116350;28;20044;-70
2023/12/03 02:11:35;;;;;;;1.20;1.10;;;0.80;99.90;;;;;;5115069;28;20046;-70
2023/12/03 02:14:02;;;;;;;1.83;1.30;;;0.80;99.90;;;;;;5114904;28;20058;-70
2023/12/03 02:16:30;;;;;;;1.20;1.10;;;0.90;99.90;;;;;;5115682;28;20039;-70
2023/12/03 02:18:56;;;;;;;1.58;1.48;;;0.90;99.90;;;;;;5115585;28;20040;-70
2023/12/03 02:21:22;;;;;;;1.20;1.10;;;0.90;99.90;;;;;;5116051;28;20047;-69
2023/12/03 02:23:47;;;;;;;1.88;1.77;;;0.90;99.90;;;;;;5115724;28;20039;-70
2023/12/03 02:26:13;;;;;;;2.75;2.55;;;0.90;99.90;;;;;;5116005;27;20035;-70
2023/12/03 02:28:39;;;;;;;1.20;1.10;;;0.90;99.90;;;;;;5115427;28;20041;-69
2023/12/03 02:31:05;;;;;;;1.30;1.20;;;0.90;99.90;;;;;;5115616;28;20089;-70
2023/12/03 02:33:31;;;;;;;;;;;0.90;99.90;;;;;;5116237;28;20483;-70
2023/12/03 02:35:58;;;;;;;1.50;1.40;;;0.90;99.90;;;;;;5115363;28;20018;-70
2023/12/03 02:38:23;;;;;;;1.27;1.17;;;0.90;99.90;;;;;;5115384;28;20078;-70
2023/12/03 02:40:49;;;;;;;1.15;1.05;;;0.90;99.90;;;;;;5115543;28;20074;-70
2023/12/03 02:43:15;;;;;;;1.50;1.40;;;0.90;99.90;;;;;;5115287;28;20039;-70
2023/12/03 02:45:40;;;;;;;1.20;1.10;;;0.90;99.90;;;;;;5115427;28;20480;-69
2023/12/03 02:48:06;;;;;;;1.40;1.30;;;0.90;99.90;;;;;;5114924;28;20040;-69
2023/12/03 02:50:31;;;;;;;1.20;1.10;;;0.90;99.90;;;;;;5115178;28;20051;-70
2023/12/03 02:52:57;;;;;;;1.60;1.50;;;0.90;99.90;;;;;;5115098;28;20043;-70
2023/12/03 02:55:22;;;;;;;1.20;1.10;;;0.90;99.90;;;;;;5114979;28;20471;-70
2023/12/03 02:57:48;;;;;;;1.30;1.20;;;0.90;99.90;;;;;;5115075;28;20100;-70
2023/12/03 03:00:14;;;;;;;1.30;1.20;;;0.90;99.90;;;;;;5114828;27;20122;-69
2023/12/03 03:02:40;;;;;;;1.63;1.52;;;0.90;99.90;;;;;;5114960;28;20047;-70
2023/12/03 03:05:06;;;;;;;1.20;1.10;;;0.90;99.90;;;;;;5114869;28;20088;-70
2023/12/03 03:07:31;;;;;;;1.88;1.77;;;0.90;99.90;;;;;;5114756;28;20487;-70
2023/12/03 03:09:57;;;;;;;1.23;1.13;;;0.90;99.90;;;;;;5115001;28;20044;-69
2023/12/03 03:12:22;;;;;;;1.13;1.02;;;0.90;99.90;;;;;;5114707;28;20452;-70
2023/12/03 03:14:48;;;;;;;1.25;1.15;;;0.90;99.90;;;;;;5114513;28;20427;-70
2023/12/03 03:17:13;;;;;;;2.05;1.95;;;0.90;99.90;;;;;;5114589;28;20040;-70
2023/12/03 03:19:43;;;;;;;1.77;1.67;;;0.90;99.90;;;;;;5114801;28;20073;-70
2023/12/03 03:22:12;;;;;;;1.20;1.10;;;1.00;99.90;;;;;;5114612;28;20047;-70
2023/12/03 03:24:37;;;;;;;1.50;1.40;;;1.00;99.90;;;;;;5114186;28;20065;-69
2023/12/03 03:27:03;;;;;;;2.38;2.17;;;1.00;99.90;;;;;;5114153;28;20035;-70
2023/12/03 03:29:29;;;;;;;1.63;1.52;;;1.00;99.90;;;;;;5114522;28;20035;-70
2023/12/03 03:31:54;;;;;;;1.65;1.55;;;1.00;99.90;;;;;;5114396;28;20042;-70
2023/12/03 03:34:20;;;;;;;1.20;1.10;;;1.00;99.90;;;;;;5114606;28;20429;-70
2023/12/03 03:36:45;;;;;;;1.20;1.10;;;1.00;99.90;;;;;;5114517;28;20031;-70
2023/12/03 03:39:11;;;;;;;1.20;1.10;;;1.00;99.90;;;;;;5114512;28;20077;-70
2023/12/03 03:41:36;;;;;;;3.03;2.75;;;1.10;99.90;;;;;;5114405;28;20068;-69
2023/12/03 03:44:02;;;;;;;1.10;1.00;;;1.10;99.90;;;;;;5114184;28;20044;-70
2023/12/03 03:46:28;;;;;;;1.20;1.10;;;1.10;99.90;;;;;;5113336;28;20465;-70
2023/12/03 03:48:54;;;;;;;1.50;1.40;;;1.10;99.90;;;;;;5114241;28;20045;-69
2023/12/03 03:51:20;;;;;;;1.10;1.00;;;1.10;99.90;;;;;;5114104;28;20360;-69
2023/12/03 03:53:45;;;;;;;1.60;1.50;;;1.40;99.90;;;;;;5114144;28;20101;-70
2023/12/03 03:56:12;;;;;;;1.20;1.10;;;1.00;99.90;;;;;;5114090;28;20043;-69
2023/12/03 03:58:37;;;;;;;1.20;1.10;;;1.10;99.90;;;;;;5114313;28;20056;-70
2023/12/03 04:01:04;;;;;;;1.50;1.40;;;1.10;99.90;;;;;;5114372;28;20047;-70
2023/12/03 04:03:30;;;;;;;1.15;1.05;;;1.50;99.90;;;;;;5114030;28;20036;-70
2023/12/03 04:05:59;;;;;;;1.50;1.40;;;1.10;99.90;;;;;;5114105;28;20487;-70
2023/12/03 04:08:24;;;;;;;1.10;1.00;;;1.10;99.90;;;;;;5113965;28;20090;-70
2023/12/03 04:10:50;;;;;;;1.30;1.20;;;1.10;99.90;;;;;;5113909;28;20078;-70
2023/12/03 04:13:15;;;;;;;1.30;1.20;;;1.10;99.90;;;;;;5113916;28;20422;-70
2023/12/03 04:15:41;;;;;;;1.10;1.00;;;1.10;99.90;;;;;;5113869;28;20028;-70
2023/12/03 04:18:06;;;;;;;1.40;1.30;;;1.10;99.90;;;;;;5113938;28;20048;-71
2023/12/03 04:20:32;;;;;;;1.20;1.10;;;1.10;99.90;;;;;;5114322;28;20131;-70
2023/12/03 04:22:58;;;;;;;1.20;1.10;;;1.20;99.90;;;;;;5113717;28;20120;-69
2023/12/03 04:25:23;;;;;;;1.52;1.42;;;1.10;99.90;;;;;;5113896;28;20042;-70
2023/12/03 04:27:49;;;;;;;1.30;1.20;;;1.20;99.90;;;;;;5113776;28;20423;-70
2023/12/03 04:30:15;;;;;;;1.30;1.20;;;1.10;99.90;;;;;;5114279;28;20065;-70
2023/12/03 04:32:40;;;;;;;3.15;2.90;;;1.10;99.90;;;;;;5113777;28;20035;-71
2023/12/03 04:35:08;;;;;;;1.35;1.25;;;1.20;99.90;;;;;;5114700;28;20046;-70
2023/12/03 04:37:34;;;;;;;1.50;1.40;;;1.20;99.90;;;;;;5117456;28;20475;-70
2023/12/03 04:39:59;;;;;;;1.10;1.00;;;1.20;99.90;;;;;;5117872;28;20035;-70
2023/12/03 04:42:25;;;;;;;1.20;1.10;;;1.20;99.90;;;;;;5117623;28;20038;-70
2023/12/03 04:44:50;;;;;;;1.20;1.10;;;1.20;99.90;;;;;;5117308;28;20097;-70
2023/12/03 04:47:16;;;;;;;1.20;1.10;;;1.20;99.90;;;;;;5118181;27;20036;-69
2023/12/03 04:49:42;;;;;;;1.40;1.30;;;1.20;99.90;;;;;;5117543;28;20074;-71
2023/12/03 04:52:07;;;;;;;1.20;1.10;;;1.30;99.90;;;;;;5117540;28;20039;-70
2023/12/03 04:54:33;;;;;;;1.20;1.10;;;1.30;99.90;;;;;;5117359;28;20475;-70
2023/12/03 04:56:58;;;;;;;1.40;1.30;;;1.30;99.90;;;;;;5117532;28;20119;-70
2023/12/03 04:59:24;;;;;;;1.30;1.20;;;1.30;99.90;;;;;;5117382;28;20131;-70
2023/12/03 05:01:49;;;;;;;1.20;1.10;;;1.30;99.90;;;;;;5117283;28;20129;-70
2023/12/03 05:04:15;;;;;;;1.40;1.30;;;1.30;99.90;;;;;;5117324;28;20035;-70
2023/12/03 05:06:41;;;;;;;1.73;1.63;;;1.30;99.90;;;;;;5117601;28;20035;-70
2023/12/03 05:09:06;;;;;;;1.45;1.20;;;1.60;99.90;;;;;;5117116;28;20047;-71
2023/12/03 05:11:32;;;;;;;1.20;1.10;;;1.30;99.90;;;;;;5117113;28;20031;-70
2023/12/03 05:13:57;;;;;;;2.58;2.38;;;1.30;99.90;;;;;;5117287;28;20093;-71
2023/12/03 05:16:23;;;;;;;1.30;1.15;;;1.30;99.90;;;;;;5116918;28;20035;-73
2023/12/03 05:18:48;;;;;;;1.30;1.20;;;1.30;99.90;;;;;;5116943;28;20417;-74
2023/12/03 05:21:14;;;;;;;1.40;1.30;;;1.30;99.90;;;;;;5117447;28;20043;-71
2023/12/03 05:23:39;;;;;;;1.27;1.17;;;1.30;99.90;;;;;;5116954;28;20051;-71
2023/12/03 05:26:05;;;;;;;1.58;1.48;;;1.30;99.90;;;;;;5116876;28;20036;-70
2023/12/03 05:28:31;;;;;;;6.40;4.50;;;1.30;99.90;;;;;;5116909;27;20035;-72
2023/12/03 05:30:57;;;;;;;2.10;2.00;;;1.30;99.90;;;;;;5116744;28;20039;-70
2023/12/03 05:33:22;;;;;;;1.45;1.20;;;1.40;99.90;;;;;;5116765;28;20466;-70
2023/12/03 05:35:48;;;;;;;1.30;1.20;;;1.30;99.90;;;;;;5116788;28;20036;-70
2023/12/03 05:38:13;;;;;;;1.30;1.20;;;1.30;99.90;;;;;;5116513;28;20063;-69
2023/12/03 05:40:39;;;;;;;1.48;1.38;;;1.30;99.90;;;;;;5115358;27;20039;-69
2023/12/03 05:43:05;;;;;;;1.30;1.20;;;1.30;99.90;;;;;;5114921;28;20078;-69
2023/12/03 05:45:30;;;;;;;1.20;1.10;;;1.30;99.90;;;;;;5115433;27;20414;-69
2023/12/03 05:47:56;;;;;;;1.60;1.50;;;1.30;99.90;;;;;;5113074;28;20036;-69
2023/12/03 05:50:21;;;;;;;1.38;1.27;;;1.30;99.90;;;;;;5115119;28;20451;-69
2023/12/03 05:52:47;;;;;;;2.85;2.45;;;1.40;99.90;;;;;;5114907;28;20114;-69
2023/12/03 05:55:13;;;;;;;1.10;1.00;;;1.30;99.90;;;;;;5114643;27;20035;-69
2023/12/03 05:57:38;;;;;;;1.20;1.10;;;1.40;99.90;;;;;;5114730;28;20061;-69
2023/12/03 06:00:05;;;;;;;1.40;1.30;;;1.40;99.90;;;;;;5114846;28;20083;-69
2023/12/03 06:02:33;;;;;;;1.60;1.50;;;1.40;99.90;;;;;;5115806;28;20039;-69
2023/12/03 06:04:59;;;;;;;1.20;1.10;;;1.40;99.90;;;;;;5116343;28;20051;-69
2023/12/03 06:07:24;;;;;;;1.27;1.17;;;1.40;99.90;;;;;;5116042;28;20036;-69
2023/12/03 06:09:50;;;;;;;1.30;1.20;;;1.40;99.90;;;;;;5115985;28;20081;-69
2023/12/03 06:12:15;;;;;;;1.20;1.10;;;1.40;99.90;;;;;;5116154;28;20382;-69
2023/12/03 06:14:41;;;;;;;3.05;2.85;;;1.40;99.90;;;;;;5115817;28;20201;-69
2023/12/03 06:17:07;;;;;;;1.20;1.10;;;1.40;99.90;;;;;;5116232;28;20031;-69
2023/12/03 06:19:33;;;;;;;1.20;1.10;;;1.40;99.90;;;;;;5115733;28;20044;-69
2023/12/03 06:21:58;;;;;;;1.60;1.50;;;1.40;99.90;;;;;;5116031;28;20043;-69
2023/12/03 06:24:25;;;;;;;1.70;1.60;;;1.40;99.90;;;;;;5115713;28;20375;-69
2023/12/03 06:26:51;;;;;;;1.20;1.10;;;1.40;99.90;;;;;;5115846;28;20043;-69
2023/12/03 06:29:16;;;;;;;1.20;1.10;;;1.40;99.90;;;;;;5115816;28;20521;-69
2023/12/03 06:31:42;;;;;;;1.60;1.50;;;1.40;99.90;;;;;;5115479;28;20035;-69
2023/12/03 06:34:07;;;;;;;1.20;1.10;;;1.40;99.90;;;;;;5115532;28;20093;-69
2023/12/03 06:36:33;;;;;;;1.50;1.40;;;1.40;99.90;;;;;;5115714;28;20039;-69
2023/12/03 06:38:58;;;;;;;1.20;1.10;;;1.40;99.90;;;;;;5115325;28;20121;-69
2023/12/03 06:41:24;;;;;;;1.20;1.10;;;1.40;99.90;;;;;;5115612;28;20118;-70
2023/12/03 06:43:50;;;;;;;2.15;1.95;;;1.40;99.90;;;;;;5115483;28;20371;-69
2023/12/03 06:46:16;;;;;;;1.73;1.63;;;1.40;99.90;;;;;;5115249;28;20043;-69
2023/12/03 06:48:42;;;;;;;1.20;1.10;;;1.40;99.90;;;;;;5115299;28;20092;-69
2023/12/03 06:51:09;;;;;;;1.15;1.05;;;1.40;99.90;;;;;;5115426;28;20043;-69
2023/12/03 06:53:34;;;;;;;1.20;1.10;;;1.40;99.90;;;;;;5115118;28;20039;-69
2023/12/03 06:56:00;;;;;;;1.40;1.30;;;1.40;99.90;;;;;;5113940;28;20044;-70
2023/12/03 06:58:25;;;;;;;1.40;1.30;;;1.40;99.90;;;;;;5114280;28;20043;-70
2023/12/03 07:00:51;;;;;;;1.95;1.85;;;1.40;99.90;;;;;;5115323;28;20048;-69
2023/12/03 07:03:17;;;;;;;1.20;1.10;;;1.50;99.90;;;;;;5115275;27;20035;-69
2023/12/03 07:05:42;;;;;;;5.38;4.93;;;1.50;99.90;;;;;;5114877;28;20043;-69
2023/12/03 07:08:08;;;;;;;1.27;1.17;;;1.50;99.90;;;;;;5114774;28;20115;-69
2023/12/03 07:10:33;;;;;;;1.60;1.50;;;1.50;99.90;;;;;;5114770;28;20039;-70
2023/12/03 07:12:59;;;;;;;1.30;1.20;;;1.50;99.90;;;;;;5114806;28;20039;-70
2023/12/03 07:15:25;;;;;;;1.33;1.23;;;1.50;99.90;;;;;;5114667;28;20040;-70
2023/12/03 07:17:51;;;;;;;3.60;3.30;;;1.50;99.90;;;;;;5114692;28;20046;-69
2023/12/03 07:20:18;;;;;;;1.20;1.10;;;1.50;99.90;;;;;;5114550;28;20047;-70
2023/12/03 07:22:43;;;;;;;;;;;1.50;99.90;;;;;;5115008;28;20450;-69
2023/12/03 07:25:09;;;;;;;3.13;2.85;;;1.40;99.90;;;;;;5114592;28;19958;-69
2023/12/03 07:27:35;;;;;;;1.60;1.50;;;1.40;99.90;;;;;;5114471;28;20036;-69
2023/12/03 07:30:00;;;;;;;1.25;1.15;;;1.40;99.90;;;;;;5114490;28;20043;-69
2023/12/03 07:32:26;;;;;;;1.35;1.25;;;1.40;99.90;;;;;;5113552;28;20044;-69
2023/12/03 07:34:52;;;;;;;2.85;2.65;;;1.40;99.90;;;;;;5113548;28;20035;-69
2023/12/03 07:37:18;;;;;;;2.60;1.40;;;1.40;99.90;;;;;;5114497;28;20042;-69
2023/12/03 07:39:44;;;;;;;3.45;3.25;;;1.40;99.90;;;;;;5114634;28;20504;-69
2023/12/03 07:42:09;;;;;;;2.05;1.95;;;1.40;99.90;;;;;;5114323;28;20035;-71
2023/12/03 07:44:35;;;;;;;1.20;1.10;;;1.40;99.90;;;;;;5113909;28;20082;-69
2023/12/03 07:47:02;;;;;;;1.30;1.20;;;1.40;99.90;;;;;;5114471;28;20031;-68
2023/12/03 07:49:28;;;;;;;3.38;3.10;;;1.40;99.90;;;;;;5114101;28;20487;-69
2023/12/03 07:51:53;;;;;;;1.30;1.20;;;1.50;99.90;;;;;;5114241;28;20047;-69
2023/12/03 07:54:19;;;;;;;1.60;1.50;;;1.40;99.90;;;;;;5114113;28;20382;-71
2023/12/03 07:56:45;;;;;;;1.30;1.20;;;1.50;99.90;;;;;;5114330;28;20476;-69
2023/12/03 07:59:11;;;;;;;1.42;1.33;;;1.50;99.90;;;;;;5114039;28;20046;-68
2023/12/03 08:01:36;;;;;;;1.70;1.60;;;1.40;99.90;;;;;;5114336;28;20352;-69
2023/12/03 08:04:03;;;;;;;2.47;1.70;;;1.40;99.90;;;;;;5114877;28;20043;-69
2023/12/03 08:06:29;;;;;;;;;;;1.50;99.90;;;;;;5114980;28;20416;-69
2023/12/03 08:08:57;;;;;;;2.85;2.50;;;1.40;99.90;;;;;;5114055;28;19916;-69
2023/12/03 08:11:22;;;;;;;1.40;1.30;;;1.50;99.90;;;;;;5117382;28;20078;-69
2023/12/03 08:13:48;;;;;;;1.60;1.50;;;1.50;99.90;;;;;;5118219;28;20082;-68
2023/12/03 08:16:14;;;;;;;1.30;1.20;;;1.50;99.90;;;;;;5118672;27;20061;-69
2023/12/03 08:18:39;;;;;;;1.58;1.48;;;1.60;99.90;;;;;;5118482;28;20074;-69
2023/12/03 08:21:05;;;;;;;2.17;2.05;;;1.50;99.90;;;;;;5118406;28;20047;-71
2023/12/03 08:23:32;;;;;;;1.30;1.20;;;1.60;99.90;;;;;;5118277;28;20107;-69
2023/12/03 08:25:58;;;;;;;3.88;3.55;;;1.60;99.90;;;;;;5118133;28;20036;-69
2023/12/03 08:28:24;;;;;;;1.40;1.30;;;1.60;99.90;;;;;;5117940;28;20073;-69
2023/12/03 08:30:50;;;;;;;1.60;1.50;;;1.60;99.90;;;;;;5118361;27;20122;-69
2023/12/03 08:33:15;;;;;;;3.95;3.33;;;1.60;99.90;;;;;;5117841;28;20042;-69
2023/12/03 08:35:41;;;;;;;1.20;1.10;;;1.70;99.90;;;;;;5117822;28;20035;-68
2023/12/03 08:38:07;;;;;;;1.20;1.10;;;1.70;99.90;;;;;;5117988;28;20437;-68
2023/12/03 08:40:33;;;;;;;3.42;3.03;;;1.70;99.90;;;;;;5117510;28;20483;-69
2023/12/03 08:42:59;;;;;;;1.50;1.40;;;1.70;99.90;;;;;;5117658;28;20046;-69
2023/12/03 08:45:25;;;;;;;1.83;1.73;;;1.70;99.90;;;;;;5117594;28;20043;-69
2023/12/03 08:47:51;;;;;;;1.20;1.10;;;1.70;99.90;;;;;;5117655;28;20395;-70
2023/12/03 08:50:17;;;;;;;1.30;1.20;;;1.70;99.90;;;;;;5117555;28;20031;-69
2023/12/03 08:52:42;;;;;;;1.27;1.17;;;1.70;99.90;;;;;;5117624;28;20120;-69
2023/12/03 08:55:08;;;;;;;1.55;1.45;;;1.70;99.90;;;;;;5117691;28;20046;-69
2023/12/03 08:57:35;;;;;;;1.40;1.30;;;1.70;99.90;;;;;;5117321;27;20118;-69
2023/12/03 09:00:00;;;;;;;1.77;1.67;;;3.00;99.90;;;;;;5117380;28;20066;-69
2023/12/03 09:02:26;;;;;;;1.20;1.10;;;1.70;99.90;;;;;;5117607;28;20460;-69
2023/12/03 09:04:52;;;;;;;1.17;1.08;;;1.70;99.90;;;;;;5117324;28;20043;-69
2023/12/03 09:07:18;;;;;;;1.20;1.10;;;1.70;99.90;;;;;;5117187;28;20032;-69
2023/12/03 09:09:43;;;;;;;2.40;2.30;;;1.80;99.90;;;;;;5116858;28;20070;-69
2023/12/03 09:12:09;;;;;;;1.20;1.10;;;1.80;99.90;;;;;;5117047;28;20129;-69
2023/12/03 09:14:35;;;;;;;1.30;1.20;;;1.90;99.90;;;;;;5117359;28;20039;-69
2023/12/03 09:17:03;;;;;;;2.88;2.58;;;1.80;99.90;;;;;;5117284;28;20080;-69
2023/12/03 09:19:29;;;;;;;1.50;1.40;;;1.90;99.90;;;;;;5116906;28;20480;-69
2023/12/03 09:21:55;;;;;;;3.90;3.00;;;1.90;99.90;;;;;;5116593;28;20051;-69
2023/12/03 09:24:21;;;;;;;1.42;1.33;;;1.90;99.90;;;;;;5116778;28;20028;-69
2023/12/03 09:26:47;;;;;;;1.10;1.00;;;1.90;99.90;;;;;;5116851;28;20073;-69
2023/12/03 09:29:13;;;;;;;1.20;1.10;;;2.00;99.90;;;;;;5116858;28;20031;-69
2023/12/03 09:31:39;;;;;;;4.55;2.97;;;2.00;99.90;;;;;;5116755;28;20527;-69
2023/12/03 09:34:06;;;;;;;2.47;2.28;;;2.00;99.90;;;;;;5115621;28;20039;-69
2023/12/03 09:36:32;;;;;;;1.30;1.20;;;2.00;99.90;;;;;;5116768;28;20035;-69
2023/12/03 09:38:58;;;;;;;1.40;1.30;;;2.00;99.90;;;;;;5116885;28;20041;-69
2023/12/03 09:41:24;;;;;;;2.25;1.40;;;2.00;99.90;;;;;;5116443;28;20092;-69
2023/12/03 09:43:58;;;;;;;1.42;1.33;;;1.90;99.90;;;;;;5116463;28;20140;-69
2023/12/03 09:46:24;;;;;;;1.75;1.65;;;2.00;99.90;;;;;;5117160;28;20035;-69
2023/12/03 09:48:52;;;;;;;2.00;1.90;;;1.90;99.90;;;;;;5116886;28;20044;-69
2023/12/03 09:51:19;;;;;;;1.30;1.20;;;1.90;99.90;;;;;;5116642;28;20117;-69
2023/12/03 09:53:46;;;;;;;1.30;1.20;;;2.00;99.90;;;;;;5116578;28;20046;-69
2023/12/03 09:56:12;;;;;;;3.45;2.90;;;2.00;99.90;;;;;;5116166;28;20044;-69
2023/12/03 09:58:39;;;;;;;1.30;1.20;;;2.00;99.90;;;;;;5116790;28;20055;-69
2023/12/03 10:01:06;;;;;;;1.55;1.45;;;2.00;99.90;;;;;;5116142;28;20048;-69
2023/12/03 10:03:31;;;;;;;1.40;1.30;;;2.10;99.90;;;;;;5116159;28;20084;-69
2023/12/03 10:05:57;;;;;;;2.45;2.25;;;2.20;99.90;;;;;;5116362;28;20032;-69
2023/12/03 10:08:23;;;;;;;1.23;1.13;;;2.30;99.90;;;;;;5116253;28;20043;-69
2023/12/03 10:10:59;;;;;;;1.20;1.10;;;2.30;99.90;;;;;;5116207;28;20101;-68
2023/12/03 10:13:27;;;;;;;12.65;4.60;;;2.30;99.90;;;;;;5116703;28;20035;-68
2023/12/03 10:15:52;;;;;;;1.30;1.20;;;2.30;99.90;;;;;;5115900;28;20046;-69
2023/12/03 10:18:19;;;;;;;1.83;1.73;;;2.30;99.90;;;;;;5116144;28;20118;-69
2023/12/03 10:20:44;;;;;;;1.85;1.75;;;2.30;99.90;;;;;;5115817;28;20060;-68
2023/12/03 10:23:15;;;;;;;1.95;1.85;;;2.20;99.90;;;;;;5115992;28;20051;-69
2023/12/03 10:25:41;;;;;;;1.20;1.10;;;2.30;99.90;;;;;;5116036;28;20131;-69
2023/12/03 10:28:08;;;;;;;1.48;1.38;;;2.30;99.90;;;;;;5116007;28;20079;-69
2023/12/03 10:30:38;;;;;;;1.70;1.45;;;2.30;99.90;;;;;;5115672;28;20077;-69
2023/12/03 10:33:04;;;;;;;1.10;1.00;;;2.40;99.90;;;;;;5114781;28;20085;-69
2023/12/03 10:35:34;;;;;;;1.57;1.47;;;2.40;99.90;;;;;;5115619;28;20116;-69
2023/12/03 10:38:00;;;;;;;1.25;1.15;;;2.50;99.90;;;;;;5115649;28;20594;-69
2023/12/03 10:40:26;;;;;;;1.73;1.63;;;2.50;99.90;;;;;;5115435;28;20046;-69
2023/12/03 10:42:52;;;;;;;4.47;4.10;;;2.50;99.90;;;;;;5115411;28;20039;-69
2023/12/03 10:45:18;;;;;;;1.20;1.10;;;2.50;99.90;;;;;;5115641;28;20372;-69
2023/12/03 10:47:44;;;;;;;1.30;1.20;;;2.50;99.90;;;;;;5115305;28;20121;-68
2023/12/03 10:50:11;;;;;;;1.50;1.40;;;2.50;99.90;;;;;;5115296;28;20048;-68
2023/12/03 10:52:39;;;;;;;2.97;2.45;;;2.50;99.90;;;;;;5115136;28;20123;-69
2023/12/03 10:55:06;;;;;;;1.40;1.30;;;2.50;99.90;;;;;;5115216;28;20481;-69
2023/12/03 10:57:34;;;;;;;1.77;1.67;;;2.40;99.90;;;;;;5114983;28;20082;-68
2023/12/03 11:00:10;;;;;;;1.20;1.10;;;2.40;99.90;;;;;;5115459;28;20119;-69
2023/12/03 11:02:46;;;;;;;1.92;1.83;;;2.40;99.90;;;;;;5115068;28;20071;-68
2023/12/03 11:05:28;;;;;;;3.75;3.05;;;2.40;99.90;;;;;;5114929;28;20039;-69
2023/12/03 11:07:55;;;;;;;1.20;1.10;;;2.30;99.90;;;;;;5115382;28;20108;-69
2023/12/03 11:10:21;;;;;;;3.28;2.35;;;2.30;99.90;;;;;;5114880;28;20047;-68
2023/12/03 11:12:47;;;;;;;1.45;1.35;;;2.30;99.90;;;;;;5114625;28;20182;-68
2023/12/03 11:15:14;;;;;;;1.45;1.35;;;2.30;99.90;;;;;;5114871;28;20048;-68
2023/12/03 11:17:41;;;;;;;2.45;2.25;;;2.30;99.90;;;;;;5114569;28;20101;-69
2023/12/03 11:20:13;;;;;;;6.10;2.97;;;2.20;99.90;;;;;;5114361;28;20475;-68
2023/12/03 11:23:15;;;;;;;1.60;1.50;;;2.30;99.90;;;;;;5115047;28;20077;-69
2023/12/03 11:25:51;;;;;;;2.08;1.98;;;2.20;99.90;;;;;;5114844;28;20032;-68
2023/12/03 11:28:17;;;;;;;1.58;1.48;;;2.90;99.90;;;;;;5114566;28;20040;-68
2023/12/03 11:30:43;;;;;;;1.20;1.10;;;2.10;99.90;;;;;;5113693;28;20486;-69
2023/12/03 11:33:19;;;;;;;1.92;1.77;;;2.00;99.90;;;;;;5114430;28;20036;-69
2023/12/03 11:35:46;;;;;;;1.63;1.52;;;2.00;99.90;;;;;;5114422;28;20102;-69
2023/12/03 11:38:21;;;;;;;2.67;2.47;;;2.00;99.90;;;;;;5114619;28;20406;-69
2023/12/03 11:40:48;;;;;;;4.40;2.30;;;2.00;99.90;;;;;;5114255;28;20055;-69
2023/12/03 11:43:25;;;;;;;1.50;1.40;;;2.00;99.90;;;;;;5114287;28;20047;-69
2023/12/03 11:45:51;;;;;;;;;;;1.90;99.90;;;;;;5114408;28;20471;-69
2023/12/03 11:48:17;;;;;;;1.85;1.75;;;1.90;99.90;;;;;;5114357;28;19922;-69
2023/12/03 11:50:45;;;;;;;1.35;1.25;;;1.80;99.90;;;;;;5114622;28;20039;-69
2023/12/03 11:53:13;;;;;;;1.60;1.50;;;1.90;99.90;;;;;;5114074;28;20046;-69
2023/12/03 11:55:40;;;;;;;2.28;2.08;;;1.90;99.90;;;;;;5114515;28;20087;-69
2023/12/03 11:58:06;;;;;;;1.38;1.27;;;1.90;99.90;;;;;;5114526;28;20036;-69
2023/12/03 12:00:33;;;;;;;1.20;1.10;;;1.90;99.90;;;;;;5114415;28;20585;-69
2023/12/03 12:03:03;;;;;;;1.20;1.10;;;1.90;99.90;;;;;;5114316;28;20038;-69
2023/12/03 12:05:29;;;;;;;1.20;1.10;;;2.00;99.90;;;;;;5114053;28;20047;-69
2023/12/03 12:08:04;;;;;;;1.67;1.58;;;2.00;99.90;;;;;;5113929;28;20031;-69
2023/12/03 12:10:34;;;;;;;2.97;2.78;;;2.00;99.90;;;;;;5114417;28;20075;-69
2023/12/03 12:13:01;;;;;;;1.20;1.10;;;2.00;99.90;;;;;;5113906;28;20039;-69
2023/12/03 12:15:26;;;;;;;2.05;1.95;;;2.00;99.90;;;;;;5114083;28;20554;-68
2023/12/03 12:17:52;;;;;;;2.97;2.72;;;2.00;99.90;;;;;;5114476;28;20162;-69
2023/12/03 12:20:25;;;;;;;2.95;2.75;;;2.00;99.90;;;;;;5114222;28;20070;-69
2023/12/03 12:22:51;;;;;;;1.42;1.33;;;2.00;99.90;;;;;;5114450;28;20032;-69
2023/12/03 12:25:18;;;;;;;1.40;1.30;;;2.00;99.90;;;;;;5113778;28;20039;-69
2023/12/03 12:27:45;;;;;;;1.30;1.20;;;2.00;99.90;;;;;;5113780;28;20360;-69
2023/12/03 12:30:14;;;;;;;;;;;2.00;99.90;;;;;;5113255;28;20039;-69
2023/12/03 12:32:40;;;;;;;1.45;1.35;;;2.00;99.90;;;;;;5113738;28;19920;-69
2023/12/03 12:35:07;;;;;;;2.35;1.85;;;2.00;99.90;;;;;;5113683;28;20117;-69
2023/12/03 12:37:34;;;;;;;1.63;1.52;;;2.00;99.90;;;;;;5113933;28;20096;-69
2023/12/03 12:40:10;;;;;;;1.50;1.40;;;2.10;99.90;;;;;;5114124;28;20044;-69
2023/12/03 12:42:38;;;;;;;1.90;1.20;;;2.20;99.90;;;;;;5113743;28;20040;-69
2023/12/03 12:45:04;;;;;;;1.42;1.23;;;2.20;99.90;;;;;;5113603;28;20475;-69
2023/12/03 12:47:35;;;;;;;1.20;1.10;;;2.30;99.90;;;;;;5113676;28;20546;-69
2023/12/03 12:50:01;;;;;;;1.20;1.10;;;2.40;99.90;;;;;;5113711;28;20043;-69
2023/12/03 12:52:28;;;;;;;1.73;1.63;;;2.40;99.90;;;;;;5113691;28;20047;-68